CheckWX is a tool to help pilots better visualize weather data.  It is not intended as a substitute for an official pre-flight weather briefing.

10:24:00 UTC

EPGD METAR
Gdańsk Lech Wałęsa Airport
Gdańsk, Poland
Current

24 mins ago

EPGD 191000Z 24007KT 210V290 9999 SCT030 21/13 Q1014
Observed
Aug-19 @ 10:00 UTC
Wind
  • 240° at 7 KTS
Visibility
10,000+ meters
Flight Rules
VFR
Cloud Levels
  • Scattered at 3,000' AGL
Temperature
21°C / 70°F
Dewpoint
13°C / 55°F
Humidity
60%
Altimeter
29.94" Hg
Pressure
1013.92 hPa
Previous

54 mins ago

EPGD 190930Z 26008KT 220V280 9999 FEW030 20/12 Q1014
Observed
Aug-19 @ 09:30 UTC
Wind
  • 260° at 8 KTS
Visibility
10,000+ meters
Flight Rules
VFR
Cloud Levels
  • Few at 3,000' AGL
Temperature
20°C / 68°F
Dewpoint
12°C / 54°F
Humidity
60%
Altimeter
29.94" Hg
Pressure
1013.92 hPa
Previous

1 hour ago

EPGD 190900Z 27010KT 240V300 9999 SCT030 BKN037 19/12 Q1014
Observed
Aug-19 @ 09:00 UTC
Wind
  • 270° at 10 KTS
Visibility
10,000+ meters
Flight Rules
VFR
Cloud Levels
  • Scattered at 3,000' AGL
  • Broken at 3,700' AGL
Temperature
19°C / 66°F
Dewpoint
12°C / 54°F
Humidity
64%
Altimeter
29.94" Hg
Pressure
1013.92 hPa